Time;durP1;ratioP1;P1;durP2;ratioP2;P2;SDS_P1;SDS_P2;PMS_P1;PMS_P2;Temp;Humidity;BMP_temperature;BMP_pressure;BME280_temperature;BME280_humidity;BME280_pressure;Samples;Min_cycle;Max_cycle;Signal;HPM_P1;HPM_P2
2024/01/07 00:01:38;;;;;;;11.15;8.93;;;;;;;7.92;89.96;97985.66;5092936;28;20154;-48
2024/01/07 00:04:04;;;;;;;16.48;14.77;;;;;;;8.03;88.19;97985.06;5091575;28;20568;-48
2024/01/07 00:06:33;;;;;;;4.15;3.40;;;;;;;8.02;86.88;97983.44;5091497;28;20024;-48
2024/01/07 00:08:58;;;;;;;3.97;3.13;;;;;;;8.05;85.68;97980.44;5091529;28;20035;-48
2024/01/07 00:11:24;;;;;;;2.58;2.00;;;;;;;8.22;86.12;97974.81;5092659;28;20386;-48
2024/01/07 00:13:50;;;;;;;9.82;3.75;;;;;;;8.30;85.28;97982.44;5092754;28;20020;-47
2024/01/07 00:16:16;;;;;;;2.58;1.90;;;;;;;8.43;82.73;97987.69;5091363;28;20052;-48
2024/01/07 00:18:41;;;;;;;3.80;2.78;;;;;;;8.54;82.19;97994.91;5091329;28;20469;-48
2024/01/07 00:21:07;;;;;;;4.13;1.90;;;;;;;8.54;82.72;97984.44;5092660;28;20016;-48
2024/01/07 00:23:33;;;;;;;5.22;4.40;;;;;;;8.44;83.07;97986.69;5091261;28;20024;-48
2024/01/07 00:25:58;;;;;;;6.70;3.90;;;;;;;8.39;83.46;97996.91;5091900;28;20081;-48
2024/01/07 00:28:24;;;;;;;2.38;2.17;;;;;;;8.39;83.19;97987.25;5092502;28;20103;-48
2024/01/07 00:30:50;;;;;;;4.43;2.90;;;;;;;8.39;82.64;97987.25;5091111;28;20024;-48
2024/01/07 00:33:15;;;;;;;7.20;4.00;;;;;;;8.47;82.70;97988.91;5092156;28;20016;-48
2024/01/07 00:35:41;;;;;;;2.90;2.60;;;;;;;8.47;82.57;97982.84;5091105;28;20031;-48
2024/01/07 00:38:07;;;;;;;6.97;5.22;;;;;;;8.47;83.94;97983.66;5092339;28;20028;-48
2024/01/07 00:40:33;;;;;;;9.57;8.57;;;;;;;8.57;82.92;97985.84;5092299;28;20094;-47
2024/01/07 00:42:58;;;;;;;3.30;2.90;;;;;;;8.63;80.97;97984.22;5074089;28;20036;-48
2024/01/07 00:45:24;;;;;;;6.55;3.38;;;;;;;8.60;79.08;97982.81;5092156;28;20451;-47
2024/01/07 00:47:50;;;;;;;5.82;1.95;;;;;;;8.57;79.71;97991.88;5090938;28;20028;-48
2024/01/07 00:50:16;;;;;;;2.90;1.98;;;;;;;8.55;80.03;97991.28;5091104;28;20035;-48
2024/01/07 00:52:43;;;;;;;4.55;2.10;;;;;;;8.50;80.23;97987.69;5090704;28;20035;-48
2024/01/07 00:55:08;;;;;;;3.45;2.90;;;;;;;8.50;81.18;97993.69;5092103;28;20486;-48
2024/01/07 00:57:34;;;;;;;3.10;1.73;;;;;;;8.55;78.86;97991.28;5090770;28;20036;-48
2024/01/07 01:00:04;;;;;;;1.70;1.23;;;;;;;8.53;77.78;97988.06;5091820;28;20154;-48
2024/01/07 01:02:30;;;;;;;4.53;2.63;;;;;;;8.39;78.63;97987.25;5090658;28;20024;-48
2024/01/07 01:04:56;;;;;;;6.25;5.65;;;;;;;8.27;79.21;97981.03;5092029;28;20035;-48
2024/01/07 01:07:21;;;;;;;4.93;4.43;;;;;;;8.28;80.69;97984.47;5091974;28;20399;-48
2024/01/07 01:09:47;;;;;;;4.20;3.80;;;;;;;8.37;80.50;97980.59;5091883;28;20390;-48
2024/01/07 01:12:13;;;;;;;11.07;10.05;;;;;;;8.46;81.47;97989.88;5090498;28;20147;-48
2024/01/07 01:14:39;;;;;;;5.28;4.78;;;;;;;8.52;82.45;97994.31;5091815;28;20028;-48
2024/01/07 01:17:04;;;;;;;5.28;3.72;;;;;;;8.54;82.30;97994.09;5090507;28;20028;-48
2024/01/07 01:19:30;;;;;;;2.60;1.77;;;;;;;8.60;81.38;97990.66;5091826;28;20025;-48
2024/01/07 01:21:56;;;;;;;2.13;1.83;;;;;;;8.62;80.31;97987.84;5091769;28;20509;-48
2024/01/07 01:24:21;;;;;;;4.32;3.00;;;;;;;8.60;80.61;97994.09;5091672;28;20024;-48
2024/01/07 01:26:47;;;;;;;4.05;1.80;;;;;;;8.66;81.08;97992.47;5090452;28;20020;-48
2024/01/07 01:29:13;;;;;;;9.30;8.27;;;;;;;8.77;81.00;97998.88;5091674;28;20031;-48
2024/01/07 01:31:39;;;;;;;2.53;2.25;;;;;;;8.82;80.82;97996.44;5091661;28;20034;-48
2024/01/07 01:34:04;;;;;;;3.08;2.42;;;;;;;8.79;80.70;97991.63;5090170;28;20044;-48
2024/01/07 01:36:33;;;;;;;6.53;5.93;;;;;;;8.79;81.52;98000.28;5090296;28;20405;-48
2024/01/07 01:38:59;;;;;;;7.05;6.35;;;;;;;8.66;82.04;98000.31;5094035;28;20024;-48
2024/01/07 01:41:24;;;;;;;3.13;2.60;;;;;;;8.59;81.85;98004.75;5094333;28;20031;-48
2024/01/07 01:43:50;;;;;;;8.95;7.03;;;;;;;8.53;82.60;98003.78;5095899;28;20016;-48
2024/01/07 01:46:16;;;;;;;6.63;2.47;;;;;;;8.53;84.21;97997.72;5095556;28;20394;-48
2024/01/07 01:48:42;;;;;;;4.50;4.10;;;;;;;8.57;83.52;97994.50;5094260;28;20021;-47
2024/01/07 01:51:09;;;;;;;4.35;2.50;;;;;;;8.66;81.88;97989.84;5095448;28;20035;-48
2024/01/07 01:53:35;;;;;;;3.33;2.33;;;;;;;8.70;81.85;97977.97;5094038;28;20020;-48
2024/01/07 01:56:04;;;;;;;11.68;8.02;;;;;;;8.70;80.82;97995.47;5095426;28;20069;-48
2024/01/07 01:58:30;;;;;;;9.57;5.63;;;;;;;8.74;80.47;97994.06;5095362;28;20021;-48
2024/01/07 02:00:56;;;;;;;2.58;2.30;;;;;;;8.80;80.55;97991.41;5095187;28;20031;-48
2024/01/07 02:03:22;;;;;;;3.22;2.35;;;;;;;8.85;81.37;97988.19;5093900;28;20506;-48
2024/01/07 02:05:51;;;;;;;3.92;3.60;;;;;;;8.92;81.11;97986.34;5095233;28;20066;-48
2024/01/07 02:08:19;;;;;;;7.45;6.75;;;;;;;8.82;81.56;97991.22;5095114;28;20039;-48
2024/01/07 02:10:45;;;;;;;2.92;2.40;;;;;;;8.67;83.42;97982.81;5093773;28;20107;-47
2024/01/07 02:13:11;;;;;;;6.95;4.78;;;;;;;8.32;85.45;97986.44;5094969;28;20099;-47
2024/01/07 02:15:37;;;;;;;3.35;2.65;;;;;;;8.09;88.00;97997.34;5093686;28;20047;-47
2024/01/07 02:18:03;;;;;;;2.30;1.90;;;;;;;7.91;88.52;97987.47;5095008;28;20486;-47
2024/01/07 02:20:29;;;;;;;3.30;1.90;;;;;;;7.86;88.79;97976.00;5094914;28;20020;-47
2024/01/07 02:22:57;;;;;;;7.13;6.47;;;;;;;7.72;87.31;97981.22;5094968;28;20486;-47
2024/01/07 02:25:23;;;;;;;4.00;3.60;;;;;;;7.73;89.42;97980.22;5093503;28;20024;-47
2024/01/07 02:27:49;;;;;;;2.25;1.98;;;;;;;7.78;86.63;97980.41;5094799;28;20016;-47
2024/01/07 02:30:15;;;;;;;2.53;2.28;;;;;;;7.68;86.51;97987.03;5094754;28;20539;-47
2024/01/07 02:32:41;;;;;;;2.47;2.05;;;;;;;7.74;86.66;97989.66;5093361;28;20077;-47
2024/01/07 02:35:06;;;;;;;4.05;2.28;;;;;;;7.80;86.27;97978.41;5094247;28;20040;-47
2024/01/07 02:37:33;;;;;;;2.60;2.35;;;;;;;7.80;84.25;97975.78;5093308;28;20453;-47
2024/01/07 02:39:58;;;;;;;4.00;2.13;;;;;;;7.82;84.60;97993.88;5094661;28;20016;-47
2024/01/07 02:42:24;;;;;;;3.03;2.10;;;;;;;7.87;84.01;97988.06;5094485;28;20031;-47
2024/01/07 02:44:50;;;;;;;18.20;2.38;;;;;;;7.93;83.84;97982.06;5093254;28;20406;-47
2024/01/07 02:47:16;;;;;;;5.47;1.90;;;;;;;7.99;82.65;97974.22;5094399;28;20016;-47
2024/01/07 02:49:41;;;;;;;4.85;2.03;;;;;;;8.03;81.34;97976.41;5092615;28;20089;-47
2024/01/07 02:52:07;;;;;;;3.20;2.90;;;;;;;8.12;83.17;97988.28;5092931;28;20486;-48
2024/01/07 02:54:33;;;;;;;5.57;4.10;;;;;;;8.21;81.90;97971.41;5092973;28;20035;-47
2024/01/07 02:56:58;;;;;;;4.18;2.65;;;;;;;8.23;79.75;97976.41;5094268;28;20032;-48
2024/01/07 02:59:24;;;;;;;4.10;2.63;;;;;;;8.28;79.68;97974.78;5094249;28;20027;-48
2024/01/07 03:01:49;;;;;;;3.83;2.55;;;;;;;8.30;79.13;97971.97;5094148;28;20039;-47
2024/01/07 03:04:16;;;;;;;4.10;2.58;;;;;;;8.34;78.65;97981.03;5094132;28;20060;-48
2024/01/07 03:06:42;;;;;;;3.13;2.60;;;;;;;8.37;80.04;97972.75;5092785;28;20027;-48
2024/01/07 03:09:10;;;;;;;5.55;2.85;;;;;;;8.44;79.61;97983.25;5094012;28;20020;-48
2024/01/07 03:11:44;;;;;;;5.45;4.95;;;;;;;8.39;78.06;97968.13;5093876;28;20031;-47
2024/01/07 03:14:10;;;;;;;3.72;2.40;;;;;;;8.35;77.99;97969.53;5094035;28;20032;-47
2024/01/07 03:16:36;;;;;;;4.95;2.00;;;;;;;8.24;77.06;97973.59;5093895;28;20191;-47
2024/01/07 03:19:02;;;;;;;3.30;2.60;;;;;;;8.27;79.30;97969.75;5093914;28;20111;-48
2024/01/07 03:21:28;;;;;;;5.60;2.42;;;;;;;8.32;79.90;97973.38;5093782;28;20404;-48
2024/01/07 03:23:54;;;;;;;3.45;2.80;;;;;;;8.35;78.19;97975.59;5092460;28;20565;-48
2024/01/07 03:26:21;;;;;;;9.73;8.82;;;;;;;8.34;79.46;97978.41;5092326;28;20544;-48
2024/01/07 03:28:47;;;;;;;4.70;3.95;;;;;;;8.31;79.60;97969.19;5093677;28;20024;-48
2024/01/07 03:31:18;;;;;;;5.57;3.17;;;;;;;8.32;79.08;97980.44;5093557;28;20367;-48
2024/01/07 03:33:44;;;;;;;4.00;3.60;;;;;;;8.31;78.89;97971.78;5093320;28;20028;-48
2024/01/07 03:36:12;;;;;;;8.20;6.18;;;;;;;8.35;79.46;97972.16;5092200;28;20118;-48
2024/01/07 03:38:38;;;;;;;6.13;5.05;;;;;;;8.40;79.54;97977.59;5092101;28;20036;-48
2024/01/07 03:41:04;;;;;;;5.43;4.47;;;;;;;8.46;78.07;97968.16;5093419;28;20106;-48
2024/01/07 03:43:30;;;;;;;4.53;3.47;;;;;;;8.38;78.16;97969.16;5092076;28;20063;-48
2024/01/07 03:45:56;;;;;;;7.00;6.00;;;;;;;8.38;76.83;97956.88;5091996;28;20454;-47
2024/01/07 03:48:22;;;;;;;6.40;4.78;;;;;;;8.24;76.56;97968.38;5093493;28;20020;-48
2024/01/07 03:50:47;;;;;;;5.68;4.72;;;;;;;8.18;78.63;97975.19;5093190;28;20052;-48
2024/01/07 03:53:14;;;;;;;4.88;3.72;;;;;;;8.15;78.20;97969.59;5093048;28;20505;-47
2024/01/07 03:55:40;;;;;;;6.70;5.60;;;;;;;8.15;77.01;97966.97;5091816;28;20141;-47
2024/01/07 03:58:06;;;;;;;7.60;6.82;;;;;;;8.08;77.14;97966.97;5093096;28;20032;-47
2024/01/07 04:00:32;;;;;;;5.47;3.50;;;;;;;8.02;75.42;97948.69;5092010;28;20064;-47
2024/01/07 04:02:58;;;;;;;6.78;4.18;;;;;;;7.93;76.23;97971.63;5091707;28;20025;-48
2024/01/07 04:05:24;;;;;;;6.38;4.72;;;;;;;7.86;76.88;97973.41;5092842;28;20027;-48
2024/01/07 04:07:50;;;;;;;4.20;3.60;;;;;;;7.80;77.08;97967.97;5091594;28;20032;-47
2024/01/07 04:10:19;;;;;;;3.13;2.53;;;;;;;7.79;76.33;97955.13;5091507;28;20114;-47
2024/01/07 04:12:45;;;;;;;3.65;2.88;;;;;;;7.73;76.05;97975.00;5091440;28;20455;-47
2024/01/07 04:15:13;;;;;;;4.13;3.08;;;;;;;7.66;75.18;97961.13;5091347;28;20024;-47
2024/01/07 04:17:39;;;;;;;4.15;3.20;;;;;;;7.60;77.19;97960.09;5092731;28;20024;-47
2024/01/07 04:20:06;;;;;;;6.28;2.88;;;;;;;7.65;75.38;97954.31;5091372;28;20028;-47
2024/01/07 04:22:32;;;;;;;9.60;5.68;;;;;;;7.57;76.07;97983.22;5092566;28;20024;-48
2024/01/07 04:24:58;;;;;;;9.68;6.28;;;;;;;7.62;76.69;97977.41;5091271;28;20512;-47
2024/01/07 04:27:27;;;;;;;5.18;3.88;;;;;;;7.60;76.59;97988.03;5091290;28;20099;-47
2024/01/07 04:29:53;;;;;;;4.25;3.45;;;;;;;7.57;76.63;97970.16;5092538;28;20086;-47
2024/01/07 04:32:19;;;;;;;13.32;10.40;;;;;;;7.54;76.67;97988.81;5092318;28;20473;-48
2024/01/07 04:34:45;;;;;;;6.70;4.35;;;;;;;7.60;77.97;97985.41;5092212;28;20032;-48
2024/01/07 04:37:11;;;;;;;6.45;5.05;;;;;;;7.68;77.59;97977.41;5092390;28;20375;-48
2024/01/07 04:39:36;;;;;;;5.18;4.18;;;;;;;7.68;77.65;97977.41;5092370;28;20092;-48
2024/01/07 04:42:03;;;;;;;5.80;5.15;;;;;;;7.67;76.74;97983.63;5091265;28;20032;-48
2024/01/07 04:44:29;;;;;;;5.93;4.82;;;;;;;7.65;76.92;97985.63;5092285;28;20018;-48
2024/01/07 04:46:54;;;;;;;5.38;3.92;;;;;;;7.64;75.80;97988.44;5091188;28;20020;-48
2024/01/07 04:49:20;;;;;;;5.68;3.20;;;;;;;7.68;76.84;97972.16;5092155;28;20020;-47
2024/01/07 04:51:49;;;;;;;9.68;6.63;;;;;;;7.61;74.96;97981.81;5092100;28;20027;-47
2024/01/07 04:54:14;;;;;;;8.20;6.22;;;;;;;7.57;76.28;97989.25;5092151;28;20028;-48
2024/01/07 04:56:40;;;;;;;10.35;6.82;;;;;;;7.59;77.57;98002.09;5090746;28;20035;-48
2024/01/07 04:59:06;;;;;;;16.25;11.65;;;;;;;7.73;76.72;97993.28;5090778;28;20516;-47
2024/01/07 05:01:35;;;;;;;7.70;5.90;;;;;;;7.71;75.26;97997.91;5091936;28;20494;-48
2024/01/07 05:04:01;;;;;;;9.82;7.75;;;;;;;7.69;76.44;97996.50;5092071;28;20055;-48
2024/01/07 05:06:27;;;;;;;6.65;4.35;;;;;;;7.76;77.76;97995.47;5090593;28;20035;-48
2024/01/07 05:08:53;;;;;;;3.78;3.15;;;;;;;7.78;75.40;98006.53;5091965;28;20027;-48
2024/01/07 05:11:19;;;;;;;4.43;3.03;;;;;;;7.72;74.89;98006.53;5091879;28;20020;-48
2024/01/07 05:13:45;;;;;;;5.03;3.92;;;;;;;7.69;74.27;97944.28;5091491;28;20486;-48
2024/01/07 05:16:19;;;;;;;3.92;3.40;;;;;;;7.51;73.64;98007.50;5091858;28;20085;-47
2024/01/07 05:18:48;;;;;;;4.32;3.70;;;;;;;7.41;74.23;98007.88;5092119;28;20070;-47
2024/01/07 05:21:18;;;;;;;2.80;2.53;;;;;;;7.37;73.73;98010.06;5091995;28;20032;-47
2024/01/07 05:23:44;;;;;;;4.90;4.30;;;;;;;7.23;75.90;98008.44;5090544;28;20028;-48
2024/01/07 05:26:10;;;;;;;7.05;4.43;;;;;;;7.22;75.99;98024.28;5090434;28;20077;-48
2024/01/07 05:28:37;;;;;;;8.48;7.63;;;;;;;7.16;76.52;98018.84;5090448;28;20101;-48
2024/01/07 05:31:02;;;;;;;4.13;2.83;;;;;;;7.26;75.72;97999.38;5073709;28;20424;-47
2024/01/07 05:33:28;;;;;;;7.78;3.60;;;;;;;7.20;75.75;98034.91;5091399;28;20036;-51
2024/01/07 05:35:54;;;;;;;2.90;2.40;;;;;;;7.17;76.04;98030.09;5091702;28;20053;-48
2024/01/07 05:38:20;;;;;;;7.72;3.30;;;;;;;7.11;76.17;98036.88;5091632;28;20024;-48
2024/01/07 05:40:45;;;;;;;6.75;2.88;;;;;;;7.11;75.99;98038.69;5090274;28;20032;-47
2024/01/07 05:43:11;;;;;;;4.63;2.25;;;;;;;7.09;75.13;98038.06;5090294;28;20502;-47
2024/01/07 05:45:37;;;;;;;5.38;3.03;;;;;;;7.07;76.13;98027.03;5090227;28;20071;-48
2024/01/07 05:48:03;;;;;;;4.40;2.63;;;;;;;7.11;75.36;98026.44;5090269;28;20074;-47
2024/01/07 05:50:29;;;;;;;4.45;2.70;;;;;;;7.11;74.40;98009.97;5091479;28;20107;-47
2024/01/07 05:52:54;;;;;;;5.20;2.92;;;;;;;6.98;74.67;98026.38;5090143;28;20122;-47
2024/01/07 05:55:20;;;;;;;8.50;3.90;;;;;;;6.98;76.17;98036.81;5091476;28;20034;-47
2024/01/07 05:57:46;;;;;;;5.30;3.47;;;;;;;7.05;75.12;98034.25;5091519;28;20540;-47
2024/01/07 06:00:12;;;;;;;3.53;3.05;;;;;;;7.03;76.31;98024.00;5091424;28;20019;-47
2024/01/07 06:02:39;;;;;;;5.18;4.20;;;;;;;6.96;74.27;98049.22;5090104;28;20036;-48
2024/01/07 06:05:06;;;;;;;4.38;2.67;;;;;;;6.93;75.46;98042.59;5091414;28;20448;-47
2024/01/07 06:07:31;;;;;;;5.30;2.83;;;;;;;7.00;75.56;98038.25;5090037;28;20025;-47
2024/01/07 06:09:58;;;;;;;8.35;3.40;;;;;;;6.94;74.90;98054.66;5091407;28;20039;-47
2024/01/07 06:12:24;;;;;;;5.35;4.35;;;;;;;6.95;73.79;98040.59;5091273;28;20478;-47
2024/01/07 06:14:49;;;;;;;3.40;2.75;;;;;;;6.91;75.11;98047.22;5091320;28;20031;-47
2024/01/07 06:17:15;;;;;;;1.85;1.73;;;;;;;7.03;76.14;98024.00;5091301;28;20020;-47
2024/01/07 06:19:40;;;;;;;5.75;2.80;;;;;;;6.97;74.88;98056.88;5091580;28;20028;-48
2024/01/07 06:22:06;;;;;;;5.05;2.80;;;;;;;6.95;74.73;98061.47;5091270;28;20036;-47
2024/01/07 06:24:32;;;;;;;4.05;2.42;;;;;;;6.88;75.71;98067.66;5092801;28;20509;-48
2024/01/07 06:26:58;;;;;;;5.82;3.08;;;;;;;6.85;76.61;98062.84;5093548;28;20161;-47
2024/01/07 06:29:23;;;;;;;4.22;2.50;;;;;;;6.89;77.00;98075.28;5093508;28;20077;-47
2024/01/07 06:31:49;;;;;;;4.10;2.47;;;;;;;6.92;75.37;98068.88;5094709;28;20030;-47
2024/01/07 06:34:15;;;;;;;5.35;3.60;;;;;;;6.81;76.12;98080.66;5093047;28;20043;-47
2024/01/07 06:36:41;;;;;;;3.75;2.58;;;;;;;6.86;77.46;98075.69;5094656;28;20024;-48
2024/01/07 06:39:08;;;;;;;4.25;2.50;;;;;;;6.97;77.08;98075.13;5094882;28;20107;-48
2024/01/07 06:41:34;;;;;;;4.82;3.60;;;;;;;7.05;76.36;98061.13;5094533;28;20028;-47
2024/01/07 06:44:01;;;;;;;5.28;2.70;;;;;;;7.14;75.84;98087.84;5094535;28;20103;-47
2024/01/07 06:46:27;;;;;;;3.30;2.78;;;;;;;7.23;76.11;98081.50;5094459;28;20028;-47
2024/01/07 06:48:53;;;;;;;4.32;2.50;;;;;;;7.27;75.42;98089.75;5093124;28;20027;-47
2024/01/07 06:51:18;;;;;;;3.47;2.50;;;;;;;7.23;74.51;98096.34;5094345;28;20013;-47
2024/01/07 06:53:44;;;;;;;5.40;2.55;;;;;;;7.18;75.45;98082.09;5093038;28;20031;-47
2024/01/07 06:56:10;;;;;;;8.93;5.25;;;;;;;7.04;74.88;98097.84;5094173;28;20031;-47
2024/01/07 06:58:35;;;;;;;6.63;5.88;;;;;;;6.96;75.85;98089.19;5094267;28;20016;-47
2024/01/07 07:01:02;;;;;;;73.10;64.93;;;;;;;6.88;75.50;98106.78;5094110;28;20027;-47
2024/01/07 07:03:28;;;;;;;27.52;18.70;;;;;;;6.77;74.19;98085.44;5092786;28;20024;-47
2024/01/07 07:05:53;;;;;;;90.82;77.72;;;;;;;6.70;75.75;98112.47;5092761;28;20024;-48
2024/01/07 07:08:19;;;;;;;63.20;52.20;;;;;;;6.88;77.64;98099.78;5092713;28;20049;-47
2024/01/07 07:10:45;;;;;;;25.73;22.95;;;;;;;6.94;75.73;98114.66;5092705;28;20028;-48
2024/01/07 07:13:12;;;;;;;15.30;11.60;;;;;;;7.00;77.46;98126.94;5092560;28;20501;-48
2024/01/07 07:15:37;;;;;;;11.40;10.32;;;;;;;6.99;76.49;98116.69;5093919;28;20016;-48
2024/01/07 07:18:04;;;;;;;21.33;16.77;;;;;;;6.98;76.08;98115.06;5093840;28;20485;-48
2024/01/07 07:20:29;;;;;;;15.82;14.18;;;;;;;6.95;76.07;98118.88;5092828;28;20489;-47
2024/01/07 07:22:55;;;;;;;29.15;25.98;;;;;;;6.96;76.92;98123.09;5092479;28;20020;-47
2024/01/07 07:25:21;;;;;;;7.72;5.13;;;;;;;7.15;77.40;98128.63;5093703;28;20103;-48
2024/01/07 07:27:47;;;;;;;7.15;4.20;;;;;;;7.28;76.55;98127.88;5093726;28;20074;-48
2024/01/07 07:30:13;;;;;;;4.63;3.33;;;;;;;7.31;73.91;98115.25;5093602;28;20058;-47
2024/01/07 07:32:42;;;;;;;5.90;4.82;;;;;;;7.23;74.75;98125.88;5093524;28;20012;-48
2024/01/07 07:35:08;;;;;;;5.55;4.90;;;;;;;7.23;74.92;98125.06;5091902;28;20143;-47
2024/01/07 07:37:38;;;;;;;8.82;7.53;;;;;;;7.17;74.61;98110.97;5092182;28;20086;-47
2024/01/07 07:40:04;;;;;;;6.65;4.50;;;;;;;7.09;73.05;98113.75;5092091;28;20027;-47
2024/01/07 07:42:29;;;;;;;6.47;5.60;;;;;;;7.13;74.19;98118.38;5093421;28;20452;-47
2024/01/07 07:44:55;;;;;;;4.28;2.90;;;;;;;7.19;74.60;98122.03;5093349;28;20028;-47
2024/01/07 07:47:21;;;;;;;10.35;7.93;;;;;;;7.20;74.89;98119.22;5093280;28;20028;-47
2024/01/07 07:49:46;;;;;;;11.57;10.38;;;;;;;7.15;75.19;98124.22;5091984;28;20486;-48
2024/01/07 07:52:14;;;;;;;5.00;4.13;;;;;;;7.16;74.25;98122.41;5091779;28;20027;-47
2024/01/07 07:54:40;;;;;;;6.07;5.15;;;;;;;7.03;74.58;98132.78;5093202;28;20107;-48
2024/01/07 07:57:05;;;;;;;7.75;5.60;;;;;;;7.05;75.47;98130.78;5093089;28;20131;-47
2024/01/07 07:59:31;;;;;;;8.82;6.82;;;;;;;7.10;75.13;98131.00;5093064;28;20084;-48
2024/01/07 08:01:57;;;;;;;6.78;4.80;;;;;;;7.10;75.71;98144.03;5091581;28;20040;-48
2024/01/07 08:04:23;;;;;;;5.93;4.82;;;;;;;7.17;73.65;98130.03;5092983;28;20031;-47
2024/01/07 08:06:49;;;;;;;8.95;7.22;;;;;;;7.14;72.52;98148.69;5092896;28;20039;-48
2024/01/07 08:09:14;;;;;;;5.88;4.82;;;;;;;7.18;74.25;98144.72;5092933;28;20027;-45
2024/01/07 08:11:40;;;;;;;8.10;6.00;;;;;;;7.22;74.29;98150.34;5091449;28;20067;-45
2024/01/07 08:14:06;;;;;;;6.88;6.20;;;;;;;7.30;75.36;98159.81;5092884;28;20417;-45
2024/01/07 08:16:32;;;;;;;9.55;5.90;;;;;;;7.29;74.80;98148.59;5092827;28;20097;-45
2024/01/07 08:18:58;;;;;;;25.25;22.23;;;;;;;7.20;72.78;98157.56;5091468;28;20502;-48
2024/01/07 08:21:24;;;;;;;14.27;12.77;;;;;;;7.04;74.01;98163.06;5092667;28;20024;-47
2024/01/07 08:23:50;;;;;;;18.55;14.40;;;;;;;6.96;74.67;98153.56;5091363;28;20028;-48
2024/01/07 08:26:19;;;;;;;22.65;16.83;;;;;;;6.94;73.82;98161.63;5092535;28;20023;-47
2024/01/07 08:28:45;;;;;;;6.90;5.60;;;;;;;6.94;73.65;98155.56;5091249;28;20050;-47
2024/01/07 08:31:11;;;;;;;30.15;24.95;;;;;;;6.95;73.59;98159.81;5092768;28;20529;-47
2024/01/07 08:33:37;;;;;;;16.75;13.23;;;;;;;7.03;73.22;98162.25;5092125;28;20064;-48
2024/01/07 08:36:04;;;;;;;8.43;6.53;;;;;;;7.09;73.91;98164.13;5091094;28;20035;-47
2024/01/07 08:38:30;;;;;;;5.82;4.28;;;;;;;7.13;74.27;98167.16;5091102;28;20378;-47
2024/01/07 08:40:56;;;;;;;6.07;4.53;;;;;;;7.18;75.11;98167.38;5092363;28;20450;-47
2024/01/07 08:43:22;;;;;;;9.85;5.20;;;;;;;7.25;74.69;98170.03;5092240;28;20078;-47
2024/01/07 08:45:47;;;;;;;6.03;5.40;;;;;;;7.42;73.63;98160.88;5090971;28;20065;-45
2024/01/07 08:48:13;;;;;;;6.60;3.97;;;;;;;7.53;74.03;98164.78;5091744;28;20016;-45
2024/01/07 08:50:39;;;;;;;8.38;4.63;;;;;;;7.58;72.64;98188.50;5092171;28;20020;-45
2024/01/07 08:53:05;;;;;;;10.05;8.63;;;;;;;7.64;71.71;98169.44;5090833;28;20089;-45
2024/01/07 08:55:31;;;;;;;7.35;5.70;;;;;;;7.68;72.44;98186.31;5090822;28;20115;-46
2024/01/07 08:57:57;;;;;;;6.00;5.10;;;;;;;7.67;71.46;98170.88;5092076;28;20028;-45
2024/01/07 09:00:25;;;;;;;4.90;4.25;;;;;;;7.54;72.53;98177.63;5092015;28;20023;-48
2024/01/07 09:02:52;;;;;;;6.43;5.30;;;;;;;7.43;72.25;98178.19;5092043;28;20054;-47
2024/01/07 09:05:18;;;;;;;6.65;4.00;;;;;;;7.32;70.63;98174.28;5073803;28;20401;-47
2024/01/07 09:07:44;;;;;;;4.90;3.38;;;;;;;7.22;71.79;98173.81;5091903;28;20019;-48
2024/01/07 09:10:10;;;;;;;5.10;4.40;;;;;;;7.26;72.41;98182.88;5091886;28;20016;-47
2024/01/07 09:12:37;;;;;;;9.82;8.27;;;;;;;7.23;72.74;98183.28;5091797;28;20024;-47
2024/01/07 09:15:07;;;;;;;6.70;5.10;;;;;;;7.25;72.71;98172.66;5090575;28;20016;-47
2024/01/07 09:17:37;;;;;;;7.00;5.68;;;;;;;7.23;73.06;98180.66;5091861;28;20054;-48
2024/01/07 09:20:10;;;;;;;13.88;11.63;;;;;;;7.21;73.89;98174.84;5073685;28;20016;-48
2024/01/07 09:22:36;;;;;;;6.22;4.93;;;;;;;7.21;74.04;98167.00;5091778;28;20043;-47
2024/01/07 09:25:05;;;;;;;6.78;6.07;;;;;;;7.16;73.17;98180.63;5092006;28;20020;-48
2024/01/07 09:27:32;;;;;;;6.88;5.72;;;;;;;7.20;74.07;98183.66;5091776;28;20023;-45
2024/01/07 09:29:59;;;;;;;4.75;4.25;;;;;;;7.21;73.57;98193.09;5090445;28;20032;-45
2024/01/07 09:32:25;;;;;;;5.68;4.05;;;;;;;7.23;73.11;98187.69;5091648;28;20016;-45
2024/01/07 09:34:51;;;;;;;13.43;9.15;;;;;;;7.20;73.11;98194.91;5091466;28;20044;-45
2024/01/07 09:37:17;;;;;;;5.88;5.25;;;;;;;7.31;74.97;98198.00;5090309;28;20394;-45
2024/01/07 09:39:46;;;;;;;8.55;5.68;;;;;;;7.36;72.88;98204.25;5090361;28;20024;-47
2024/01/07 09:42:17;;;;;;;6.07;4.80;;;;;;;7.36;73.04;98200.81;5091644;28;20470;-47
2024/01/07 09:44:43;;;;;;;3.65;2.80;;;;;;;7.53;73.61;98194.28;5091653;28;20053;-47
2024/01/07 09:47:14;;;;;;;8.05;7.25;;;;;;;7.51;72.57;98192.88;5091565;28;20032;-47
2024/01/07 09:49:41;;;;;;;5.78;5.18;;;;;;;7.47;72.96;98196.88;5073682;28;20035;-47
2024/01/07 09:52:09;;;;;;;6.55;5.85;;;;;;;7.53;72.47;98201.34;5090437;28;20028;-47
2024/01/07 09:54:39;;;;;;;8.70;7.80;;;;;;;7.58;72.62;98202.34;5091428;28;20028;-47
2024/01/07 09:57:07;;;;;;;10.48;8.52;;;;;;;7.71;71.76;98188.56;5091535;28;20486;-47
2024/01/07 09:59:35;;;;;;;6.63;5.88;;;;;;;7.65;71.10;98204.22;5093026;28;20030;-47
2024/01/07 10:02:01;;;;;;;12.30;11.02;;;;;;;7.70;71.61;98189.56;5095283;28;20032;-48
2024/01/07 10:04:30;;;;;;;9.40;8.15;;;;;;;7.69;70.13;98195.78;5095297;28;20463;-45
2024/01/07 10:06:57;;;;;;;4.32;3.65;;;;;;;7.67;70.63;98202.22;5095325;28;20024;-45
2024/01/07 10:09:23;;;;;;;5.35;4.47;;;;;;;7.62;70.20;98192.31;5093923;28;20038;-45
2024/01/07 10:11:49;;;;;;;6.22;5.20;;;;;;;7.57;70.81;98198.13;5095105;28;20406;-45
2024/01/07 10:14:16;;;;;;;6.82;4.65;;;;;;;7.63;69.94;98201.00;5095183;28;20030;-45
2024/01/07 10:16:41;;;;;;;19.13;17.25;;;;;;;7.60;70.12;98200.34;5093786;28;20024;-46
2024/01/07 10:19:07;;;;;;;9.20;6.47;;;;;;;7.56;70.37;98188.69;5095070;28;20024;-46
2024/01/07 10:21:34;;;;;;;7.07;6.05;;;;;;;7.55;70.22;98141.88;5095025;28;20020;-47
2024/01/07 10:24:11;;;;;;;6.65;4.72;;;;;;;7.32;70.41;98208.22;5093760;28;20111;-47
2024/01/07 10:26:41;;;;;;;7.28;5.10;;;;;;;7.32;71.46;98203.00;5095123;28;20441;-48
2024/01/07 10:29:10;;;;;;;8.93;6.75;;;;;;;7.36;70.42;98187.75;5095143;28;20413;-48
2024/01/07 10:31:42;;;;;;;9.30;8.30;;;;;;;7.41;72.15;98198.44;5094797;28;20016;-48
2024/01/07 10:34:09;;;;;;;5.82;3.88;;;;;;;7.49;70.79;98172.19;5094719;28;20060;-47
2024/01/07 10:36:37;;;;;;;6.93;5.50;;;;;;;7.53;71.91;98189.06;5094713;28;20058;-48
2024/01/07 10:39:03;;;;;;;7.25;6.50;;;;;;;7.65;70.60;98201.59;5094614;28;20064;-45
2024/01/07 10:41:30;;;;;;;9.18;5.03;;;;;;;7.69;69.07;98198.41;5094525;28;20024;-45
2024/01/07 10:43:56;;;;;;;11.18;7.60;;;;;;;7.62;70.32;98181.88;5094563;28;20585;-45
2024/01/07 10:46:22;;;;;;;19.52;16.80;;;;;;;7.54;69.80;98193.28;5094404;28;20102;-46
2024/01/07 10:48:55;;;;;;;10.02;9.00;;;;;;;7.57;70.34;98190.31;5093165;28;20028;-45
2024/01/07 10:51:22;;;;;;;10.63;8.35;;;;;;;7.55;70.82;98194.13;5094334;28;20016;-45
2024/01/07 10:53:55;;;;;;;9.13;7.63;;;;;;;7.56;69.09;98157.34;5092954;28;20027;-45
2024/01/07 10:56:25;;;;;;;10.70;9.00;;;;;;;7.43;70.66;98185.22;5094376;28;20031;-45
2024/01/07 10:58:54;;;;;;;10.75;9.32;;;;;;;7.36;71.04;98172.09;5092980;28;20035;-47
2024/01/07 11:01:23;;;;;;;12.88;9.80;;;;;;;7.44;71.95;98189.41;5094243;28;20180;-47
2024/01/07 11:04:08;;;;;;;12.93;11.13;;;;;;;7.46;71.66;98177.78;5076392;28;20118;-47
2024/01/07 11:06:39;;;;;;;10.55;7.20;;;;;;;7.44;71.91;98185.00;5094196;28;20104;-47
2024/01/07 11:09:29;;;;;;;13.93;9.27;;;;;;;7.41;70.78;98182.78;5092846;28;20035;-46
2024/01/07 11:11:56;;;;;;;10.35;9.30;;;;;;;7.35;72.18;98168.69;5093797;28;20114;-47
2024/01/07 11:14:39;;;;;;;12.85;10.10;;;;;;;7.47;70.96;98166.34;5092650;28;20024;-47
2024/01/07 11:17:06;;;;;;;12.82;10.63;;;;;;;7.47;71.09;98174.19;5092587;28;20512;-47
2024/01/07 11:19:33;;;;;;;10.98;8.80;;;;;;;7.51;70.83;98158.94;5093842;28;20149;-47
2024/01/07 11:22:24;;;;;;;11.05;7.63;;;;;;;7.55;71.36;98158.34;5093740;28;20052;-47
2024/01/07 11:24:51;;;;;;;9.75;7.18;;;;;;;7.47;70.97;98168.16;5085333;28;20125;-47
2024/01/07 11:27:17;;;;;;;11.20;8.10;;;;;;;7.40;70.69;98155.88;5092352;28;20032;-47
2024/01/07 11:29:43;;;;;;;10.90;9.23;;;;;;;7.33;71.91;98168.09;5092398;28;20437;-47
2024/01/07 11:32:12;;;;;;;12.25;10.68;;;;;;;7.38;70.88;98167.50;5093500;28;20020;-47
2024/01/07 11:34:51;;;;;;;8.80;7.80;;;;;;;7.30;72.39;98154.59;5093273;28;20075;-47
2024/01/07 11:37:17;;;;;;;8.73;6.68;;;;;;;7.30;71.74;98133.72;5092233;28;20413;-47